Huvudsida
METAR-TAF:

METAR-TAF

Flygplatser :

Pärnu flygplats

Pärnu, Estland

latitud: 58-25-09N, longitud: 024-28-22E, höjd: 14 m

Aktuellt väderrapport

Denna rapport gjordes för 14 timmar och 5 minuter sedan, klockan 12:50 UTC
Vind 9 kt från nord, varierande mellan nord/nordväst och nord/nordost
Temperatur 12°C
Fuktighet 62%
Tryck 1004 hPa
Sikt 10 km eller mer
Få moln på en höjd av 900 ft
Spridda moln på en höjd av 2200 ft

METAR: EEPU 181250Z 36009KT 330V030 9999 FEW009 SCT022 12/05 Q1004

Tid: 05:55 (02:55 UTC)


TAF: saknas

Aktuella väderrapporter och prognoser från 4000 flygplatser (METAR- och TAF-rapporter).

De tillgängliga stationerna syns som gula och röda prickar på kartan.

För musen över prickarna för att se namnen på stationerna.

Klicka sedan för att få väderrapporter och prognoser.

För att ändra kartan: Klicka på de gröna knapparna med ett svart kors på för att zooma in; den gröna knappen med ett streck på för att zooma ut; eller på de gröna pilarna för angränsande kartor.


METAR-TAF: